createdAt,value
2023-04-02T00:00:11.233Z,2.00
2023-04-02T00:03:10.401Z,2.37
2023-04-02T00:05:37.225Z,2.30
2023-04-02T00:08:18.111Z,2.57
2023-04-02T00:10:57.795Z,2.10
2023-04-02T00:13:51.910Z,1.77
2023-04-02T00:16:23.242Z,1.90
2023-04-02T00:18:56.248Z,2.27
2023-04-02T00:21:26.474Z,1.90
2023-04-02T00:23:58.972Z,2.00
2023-04-02T00:26:33.221Z,2.10
2023-04-02T00:29:01.080Z,2.13
2023-04-02T00:31:28.160Z,2.13
2023-04-02T00:33:55.771Z,2.10
2023-04-02T00:36:24.678Z,2.17
2023-04-02T00:38:58.212Z,2.27
2023-04-02T00:41:29.661Z,2.10
2023-04-02T00:43:58.208Z,2.20
2023-04-02T00:46:31.982Z,2.30
2023-04-02T00:49:12.589Z,2.30
2023-04-02T00:51:46.928Z,2.53
2023-04-02T00:54:15.567Z,2.30
2023-04-02T00:56:51.705Z,2.47
2023-04-02T00:59:30.098Z,2.53
2023-04-02T01:02:17.138Z,2.57
2023-04-02T01:04:59.646Z,2.30
2023-04-02T01:07:41.842Z,2.40
2023-04-02T01:10:29.803Z,2.70
2023-04-02T01:13:06.446Z,2.33
2023-04-02T01:15:47.269Z,1.80
2023-04-02T01:18:33.320Z,2.40
2023-04-02T01:21:15.063Z,2.10
2023-04-02T01:24:02.162Z,2.40
2023-04-02T01:26:46.865Z,2.47
2023-04-02T01:29:18.747Z,2.73
2023-04-02T01:31:46.851Z,2.57
2023-04-02T01:34:17.116Z,2.20
2023-04-02T01:36:58.923Z,2.57
2023-04-02T01:39:31.309Z,2.40
2023-04-02T01:42:09.682Z,2.47
2023-04-02T01:44:42.808Z,2.37
2023-04-02T01:47:15.811Z,2.33
2023-04-02T01:49:43.894Z,2.20
2023-04-02T01:52:19.095Z,2.10
2023-04-02T01:54:47.680Z,2.10
2023-04-02T01:57:14.405Z,2.07
2023-04-02T01:59:41.570Z,2.30
2023-04-02T02:02:12.830Z,2.17
2023-04-02T02:04:40.588Z,2.10
2023-04-02T02:07:15.267Z,2.97
2023-04-02T02:09:42.620Z,2.57
2023-04-02T02:12:13.684Z,2.40
2023-04-02T02:14:47.335Z,2.40
2023-04-02T02:17:19.713Z,2.70
2023-04-02T02:19:51.850Z,2.37
2023-04-02T02:22:32.294Z,2.43
2023-04-02T02:25:02.712Z,2.33
2023-04-02T02:27:41.951Z,2.10
2023-04-02T02:30:17.371Z,2.10
2023-04-02T02:32:52.211Z,2.10
2023-04-02T02:35:23.998Z,2.37
2023-04-02T02:38:02.663Z,2.20
2023-04-02T02:40:40.679Z,2.20
2023-04-02T02:43:12.654Z,2.27
2023-04-02T02:45:42.782Z,2.30
2023-04-02T02:48:18.677Z,2.30
2023-04-02T02:50:46.196Z,2.83
2023-04-02T02:53:21.531Z,2.60
2023-04-02T02:55:53.070Z,2.70
2023-04-02T02:58:26.305Z,2.50
2023-04-02T03:00:54.078Z,2.57
2023-04-02T03:03:24.696Z,2.40
2023-04-02T03:05:59.952Z,2.20
2023-04-02T03:08:40.298Z,2.77
2023-04-02T03:11:40.855Z,2.50
2023-04-02T03:14:23.624Z,3.00
2023-04-02T03:16:56.466Z,2.90
2023-04-02T03:19:22.988Z,3.50
2023-04-02T03:21:55.912Z,3.60
2023-04-02T03:24:43.736Z,3.70
2023-04-02T03:27:42.019Z,3.90
2023-04-02T03:30:26.662Z,3.60
2023-04-02T03:32:56.990Z,3.83
2023-04-02T03:35:54.613Z,3.50
2023-04-02T03:38:30.210Z,3.10
2023-04-02T03:41:16.989Z,3.80
2023-04-02T03:43:48.318Z,4.83
2023-04-02T03:46:24.819Z,3.30
2023-04-02T03:49:05.033Z,4.23
2023-04-02T03:51:47.970Z,3.93
2023-04-02T03:54:16.670Z,4.67
2023-04-02T03:56:47.194Z,3.93
2023-04-02T03:59:21.908Z,4.80
2023-04-02T04:01:59.221Z,4.53
2023-04-02T04:04:29.396Z,4.40
2023-04-02T04:06:57.224Z,5.30
2023-04-02T04:09:33.451Z,4.60
2023-04-02T04:12:28.122Z,4.90
2023-04-02T04:15:07.222Z,5.13
2023-04-02T04:18:02.041Z,4.37
2023-04-02T04:20:40.471Z,4.50
2023-04-02T04:23:30.535Z,4.73
2023-04-02T04:26:01.914Z,5.20
2023-04-02T04:28:56.310Z,5.20
2023-04-02T04:31:30.751Z,4.50
2023-04-02T04:34:05.098Z,5.30
2023-04-02T04:36:54.530Z,4.87
2023-04-02T04:39:57.773Z,5.30
2023-04-02T04:42:29.157Z,5.70
2023-04-02T04:45:08.720Z,5.80
2023-04-02T04:47:43.536Z,5.83
2023-04-02T04:50:34.162Z,5.77
2023-04-02T04:53:08.769Z,5.40
2023-04-02T04:55:37.958Z,4.90
2023-04-02T04:58:28.990Z,5.70
2023-04-02T05:01:18.755Z,5.37
2023-04-02T05:04:03.521Z,5.10
2023-04-02T05:06:41.791Z,5.27
2023-04-02T05:09:32.011Z,5.43
2023-04-02T05:12:05.437Z,4.60
2023-04-02T05:14:49.758Z,4.63
2023-04-02T05:17:36.762Z,4.50
2023-04-02T05:20:27.889Z,4.50
2023-04-02T05:22:59.976Z,4.70
2023-04-02T05:25:28.888Z,4.73
2023-04-02T05:28:13.202Z,4.40
2023-04-02T05:30:52.994Z,4.17
2023-04-02T05:33:24.811Z,4.73
2023-04-02T05:36:00.489Z,4.67
2023-04-02T05:38:29.917Z,3.77
2023-04-02T05:41:36.485Z,4.10
2023-04-02T05:44:29.191Z,2.90
2023-04-02T05:47:14.181Z,3.83
2023-04-02T05:49:47.036Z,3.20
2023-04-02T05:52:24.848Z,3.97
2023-04-02T05:55:07.438Z,4.33
2023-04-02T05:57:46.845Z,3.90
2023-04-02T06:00:25.198Z,3.57
2023-04-02T06:02:59.873Z,3.27
2023-04-02T06:05:32.758Z,3.77
2023-04-02T06:08:06.797Z,3.97
2023-04-02T06:10:47.471Z,3.33
2023-04-02T06:13:18.767Z,3.13
2023-04-02T06:15:47.237Z,3.20
2023-04-02T06:18:30.638Z,3.40
2023-04-02T06:20:58.306Z,3.50
2023-04-02T06:23:42.767Z,3.30
2023-04-02T06:26:24.014Z,3.23
2023-04-02T06:29:20.205Z,3.10
2023-04-02T06:31:59.027Z,2.97
2023-04-02T06:34:27.853Z,3.10
2023-04-02T06:37:27.522Z,3.37
2023-04-02T06:39:55.150Z,3.07
2023-04-02T06:42:34.069Z,3.00
2023-04-02T06:45:01.088Z,2.73
2023-04-02T06:47:38.132Z,2.77
2023-04-02T06:50:16.762Z,3.00
2023-04-02T06:52:53.436Z,2.90
2023-04-02T06:55:53.363Z,2.53
2023-04-02T06:58:20.778Z,3.83
2023-04-02T07:00:49.621Z,2.90
2023-04-02T07:03:25.881Z,2.40
2023-04-02T07:05:52.522Z,2.70
2023-04-02T07:08:22.564Z,2.63
2023-04-02T07:10:49.240Z,2.90
2023-04-02T07:13:18.354Z,2.30
2023-04-02T07:15:46.890Z,2.70
2023-04-02T07:18:26.576Z,2.90
2023-04-02T07:20:53.144Z,2.47
2023-04-02T07:23:21.039Z,2.70
2023-04-02T07:25:50.248Z,2.43
2023-04-02T07:28:17.278Z,2.50
2023-04-02T07:30:44.484Z,2.67
2023-04-02T07:33:13.905Z,2.60
2023-04-02T07:35:41.044Z,2.40
2023-04-02T07:38:07.897Z,3.07
2023-04-02T07:40:34.837Z,2.37
2023-04-02T07:43:02.142Z,1.83
2023-04-02T07:45:28.862Z,2.67
2023-04-02T07:47:56.606Z,2.80
2023-04-02T07:50:23.394Z,1.90
2023-04-02T07:52:50.398Z,2.43
2023-04-02T07:55:17.253Z,2.27
2023-04-02T07:57:55.616Z,2.53
2023-04-02T08:00:22.950Z,2.60
2023-04-02T08:02:49.778Z,2.13
2023-04-02T08:05:17.145Z,2.30
2023-04-02T08:07:44.444Z,2.27
2023-04-02T08:10:12.467Z,2.30
2023-04-02T08:12:39.019Z,2.30
2023-04-02T08:15:06.900Z,2.77
2023-04-02T08:17:33.551Z,2.20
2023-04-02T08:20:00.993Z,2.57
2023-04-02T08:22:28.657Z,2.10
2023-04-02T08:24:56.265Z,1.70
2023-04-02T08:27:23.952Z,2.70
2023-04-02T08:29:51.138Z,2.67
2023-04-02T08:32:18.168Z,1.80
2023-04-02T08:34:45.356Z,2.47
2023-04-02T08:37:12.766Z,1.80
2023-04-02T08:39:39.949Z,2.10
2023-04-02T08:42:25.024Z,2.50
2023-04-02T08:44:51.535Z,2.30
2023-04-02T08:47:20.727Z,1.80
2023-04-02T08:49:59.722Z,1.73
2023-04-02T08:52:33.785Z,2.00
2023-04-02T08:55:03.195Z,2.17
2023-04-02T08:57:44.212Z,1.97
2023-04-02T09:00:30.341Z,2.30
2023-04-02T09:03:02.399Z,2.20
2023-04-02T09:05:33.817Z,1.90
2023-04-02T09:08:04.984Z,2.10
2023-04-02T09:10:39.474Z,2.10
2023-04-02T09:13:21.026Z,1.73
2023-04-02T09:15:49.626Z,1.80
2023-04-02T09:18:18.215Z,1.97
2023-04-02T09:20:47.983Z,2.00
2023-04-02T09:23:23.908Z,2.20
2023-04-02T09:26:03.692Z,1.93
2023-04-02T09:28:31.501Z,2.03
2023-04-02T09:31:20.646Z,2.40
2023-04-02T09:33:49.460Z,2.00
2023-04-02T09:36:33.767Z,1.77
2023-04-02T09:39:16.078Z,2.10
2023-04-02T09:41:43.809Z,1.83
2023-04-02T09:44:19.075Z,2.07
2023-04-02T09:46:53.050Z,1.63
2023-04-02T09:49:23.437Z,2.13
2023-04-02T09:52:18.142Z,2.50
2023-04-02T09:54:45.004Z,1.80
2023-04-02T09:57:23.601Z,1.60
2023-04-02T10:00:14.549Z,1.93
2023-04-02T10:03:02.622Z,2.07
2023-04-02T10:05:40.549Z,1.90
2023-04-02T10:08:30.143Z,1.43
2023-04-02T10:11:00.676Z,1.50
2023-04-02T10:13:51.334Z,1.33
2023-04-02T10:16:41.408Z,1.60
2023-04-02T10:19:26.479Z,1.43
2023-04-02T10:21:54.851Z,1.47
2023-04-02T10:24:21.602Z,1.47
2023-04-02T10:27:17.824Z,1.87
2023-04-02T10:30:03.867Z,1.70
2023-04-02T10:32:51.704Z,2.00
2023-04-02T10:35:35.083Z,1.50
2023-04-02T10:38:50.288Z,1.90
2023-04-02T10:41:35.455Z,1.40
2023-04-02T10:44:24.030Z,1.60
2023-04-02T10:47:27.511Z,2.10
2023-04-02T10:50:29.568Z,2.10
2023-04-02T10:53:15.938Z,1.40
2023-04-02T10:55:55.188Z,1.70
2023-04-02T10:58:34.288Z,1.70
2023-04-02T11:01:13.427Z,2.30
2023-04-02T11:03:48.716Z,2.10
2023-04-02T11:06:31.085Z,1.77
2023-04-02T11:09:01.676Z,1.83
2023-04-02T11:11:41.870Z,2.00
2023-04-02T11:14:20.644Z,1.47
2023-04-02T11:16:50.083Z,1.87
2023-04-02T11:19:16.866Z,1.53
2023-04-02T11:21:58.645Z,1.43
2023-04-02T11:24:36.832Z,1.77
2023-04-02T11:27:12.323Z,1.43
2023-04-02T11:29:50.929Z,1.57
2023-04-02T11:32:27.422Z,1.70
2023-04-02T11:35:05.813Z,1.70
2023-04-02T11:37:41.085Z,1.73
2023-04-02T11:40:39.705Z,1.70
2023-04-02T11:43:34.349Z,1.80
2023-04-02T11:46:03.492Z,1.83
2023-04-02T11:48:37.422Z,1.67
2023-04-02T11:51:24.942Z,1.60
2023-04-02T11:53:54.614Z,1.40
2023-04-02T11:56:43.537Z,1.40
2023-04-02T11:59:26.669Z,1.50
2023-04-02T12:02:12.173Z,1.67
2023-04-02T12:04:41.512Z,1.73
2023-04-02T12:07:34.953Z,1.40
2023-04-02T12:10:17.907Z,1.60
2023-04-02T12:12:44.704Z,1.80
2023-04-02T12:15:46.083Z,1.43
2023-04-02T12:18:17.568Z,1.87
2023-04-02T12:21:02.923Z,2.10
2023-04-02T12:23:32.925Z,1.37
2023-04-02T12:26:08.651Z,1.60
2023-04-02T12:28:37.936Z,1.50
2023-04-02T12:31:18.814Z,1.50
2023-04-02T12:33:46.193Z,1.67
2023-04-02T12:36:15.465Z,1.77
2023-04-02T12:38:47.813Z,1.80
2023-04-02T12:41:36.190Z,1.60
2023-04-02T12:44:06.404Z,1.77
2023-04-02T12:46:35.465Z,1.70
2023-04-02T12:49:06.797Z,1.50
2023-04-02T12:51:37.257Z,1.80
2023-04-02T12:54:04.515Z,2.10
2023-04-02T12:56:31.170Z,2.10
2023-04-02T12:59:00.109Z,1.80
2023-04-02T13:01:31.570Z,1.60
2023-04-02T13:04:14.910Z,2.27
2023-04-02T13:06:50.038Z,1.60
2023-04-02T13:09:35.806Z,1.80
2023-04-02T13:12:03.092Z,1.97
2023-04-02T13:14:30.503Z,2.60
2023-04-02T13:16:57.417Z,1.87
2023-04-02T13:19:27.782Z,1.73
2023-04-02T13:21:55.239Z,2.27
2023-04-02T13:24:24.807Z,1.80
2023-04-02T13:26:55.263Z,2.00
2023-04-02T13:29:32.603Z,1.90
2023-04-02T13:32:02.189Z,1.87
2023-04-02T13:34:29.288Z,2.07
2023-04-02T13:36:57.312Z,1.70
2023-04-02T13:39:24.474Z,1.90
2023-04-02T13:41:58.595Z,1.90
2023-04-02T13:44:28.823Z,1.83
2023-04-02T13:46:56.356Z,2.57
2023-04-02T13:49:24.462Z,2.37
2023-04-02T13:51:54.553Z,2.37
2023-04-02T13:54:31.143Z,1.90
2023-04-02T13:56:58.103Z,1.93
2023-04-02T13:59:25.882Z,2.43
2023-04-02T14:01:57.629Z,2.10
2023-04-02T14:04:29.038Z,2.20
2023-04-02T14:07:17.509Z,1.93
2023-04-02T14:10:04.036Z,1.63
2023-04-02T14:12:39.315Z,1.73
2023-04-02T14:15:36.452Z,1.77
2023-04-02T14:18:17.874Z,1.77
2023-04-02T14:20:53.915Z,1.67
2023-04-02T14:23:45.733Z,1.80
2023-04-02T14:26:31.496Z,2.10
2023-04-02T14:29:21.088Z,1.73
2023-04-02T14:31:53.841Z,1.80
2023-04-02T14:34:42.801Z,1.90
2023-04-02T14:37:18.121Z,1.50
2023-04-02T14:40:00.460Z,1.63
2023-04-02T14:42:43.646Z,1.50
2023-04-02T14:45:36.001Z,1.73
2023-04-02T14:48:26.904Z,1.70
2023-04-02T14:50:59.712Z,1.57
2023-04-02T14:53:44.218Z,1.80
2023-04-02T14:56:13.358Z,1.87
2023-04-02T14:58:48.485Z,1.80
2023-04-02T15:01:27.721Z,1.60
2023-04-02T15:04:02.352Z,1.50
2023-04-02T15:06:37.990Z,1.67
2023-04-02T15:09:16.529Z,1.83
2023-04-02T15:11:51.600Z,1.53
2023-04-02T15:14:40.865Z,1.50
2023-04-02T15:17:11.461Z,1.67
2023-04-02T15:19:38.303Z,1.40
2023-04-02T15:22:24.787Z,1.70
2023-04-02T15:25:06.631Z,1.90
2023-04-02T15:27:48.234Z,3.10
2023-04-02T15:30:22.110Z,1.47
2023-04-02T15:32:49.450Z,1.60
2023-04-02T15:35:22.246Z,1.50
2023-04-02T15:38:15.379Z,1.23
2023-04-02T15:40:53.525Z,1.27
2023-04-02T15:43:38.920Z,1.50
2023-04-02T15:46:08.334Z,1.73
2023-04-02T15:49:03.061Z,2.57
2023-04-02T15:52:01.251Z,1.83
2023-04-02T15:54:47.735Z,1.83
2023-04-02T15:57:20.142Z,1.40
2023-04-02T15:59:47.164Z,1.50
2023-04-02T16:02:58.460Z,1.90
2023-04-02T16:05:55.632Z,1.50
2023-04-02T16:08:43.700Z,1.33
2023-04-02T16:11:12.690Z,1.40
2023-04-02T16:13:40.640Z,1.17
2023-04-02T16:16:26.848Z,1.33
2023-04-02T16:18:59.700Z,1.67
2023-04-02T16:21:33.565Z,1.37
2023-04-02T16:24:00.366Z,1.63
2023-04-02T16:26:36.037Z,1.50
2023-04-02T16:29:21.066Z,1.40
2023-04-02T16:31:59.003Z,1.30
2023-04-02T16:34:39.420Z,1.60
2023-04-02T16:37:11.357Z,1.53
2023-04-02T16:39:59.996Z,1.67
2023-04-02T16:42:43.264Z,1.67
2023-04-02T16:45:10.148Z,1.63
2023-04-02T16:47:56.727Z,1.80
2023-04-02T16:50:38.339Z,1.30
2023-04-02T16:53:14.079Z,1.50
2023-04-02T16:55:40.679Z,1.60
2023-04-02T16:58:35.722Z,1.80
2023-04-02T17:01:08.529Z,1.37
2023-04-02T17:03:41.121Z,1.43
2023-04-02T17:06:13.556Z,3.03
2023-04-02T17:08:47.008Z,1.90
2023-04-02T17:11:24.354Z,1.90
2023-04-02T17:14:29.591Z,1.70
2023-04-02T17:17:02.372Z,1.90
2023-04-02T17:19:30.275Z,1.70
2023-04-02T17:22:01.291Z,1.30
2023-04-02T17:24:33.835Z,1.30
2023-04-02T17:27:06.101Z,1.53
2023-04-02T17:29:38.849Z,1.30
2023-04-02T17:32:16.276Z,1.43
2023-04-02T17:34:42.815Z,3.20
2023-04-02T17:37:21.395Z,2.90
2023-04-02T17:40:16.931Z,2.07
2023-04-02T17:43:11.551Z,2.07
2023-04-02T17:46:01.480Z,1.63
2023-04-02T17:48:46.936Z,2.53
2023-04-02T17:51:34.345Z,2.10
2023-04-02T17:54:27.693Z,2.60
2023-04-02T17:57:07.882Z,1.70
2023-04-02T17:59:44.223Z,1.90
2023-04-02T18:02:29.973Z,1.90
2023-04-02T18:05:09.696Z,2.03
2023-04-02T18:07:41.974Z,3.30
2023-04-02T18:10:34.592Z,2.30
2023-04-02T18:13:30.774Z,2.80
2023-04-02T18:16:10.831Z,1.60
2023-04-02T18:18:43.311Z,2.00
2023-04-02T18:21:18.494Z,1.80
2023-04-02T18:23:54.414Z,1.73
2023-04-02T18:26:52.769Z,1.50
2023-04-02T18:29:42.856Z,1.77
2023-04-02T18:32:33.544Z,1.57
2023-04-02T18:35:12.093Z,1.70
2023-04-02T18:38:16.735Z,1.57
2023-04-02T18:41:01.966Z,1.90
2023-04-02T18:43:50.445Z,1.40
2023-04-02T18:46:40.700Z,2.00
2023-04-02T18:49:19.419Z,2.00
2023-04-02T18:51:49.072Z,1.63
2023-04-02T18:54:25.271Z,2.23
2023-04-02T18:56:51.931Z,2.10
2023-04-02T18:59:30.263Z,2.00
2023-04-02T19:01:58.946Z,2.57
2023-04-02T19:04:32.626Z,1.90
2023-04-02T19:07:27.205Z,1.97
2023-04-02T19:09:58.628Z,2.77
2023-04-02T19:12:25.422Z,2.63
2023-04-02T19:14:52.726Z,2.50
2023-04-02T19:17:22.285Z,2.87
2023-04-02T19:20:10.501Z,3.53
2023-04-02T19:22:57.274Z,2.60
2023-04-02T19:25:56.465Z,2.57
2023-04-02T19:28:52.772Z,2.80
2023-04-02T19:31:34.458Z,3.77
2023-04-02T19:34:17.173Z,3.07
2023-04-02T19:37:04.533Z,3.03
2023-04-02T19:40:18.194Z,2.97
2023-04-02T19:42:48.063Z,3.37
2023-04-02T19:45:30.275Z,3.30
2023-04-02T19:48:00.745Z,2.63
2023-04-02T19:50:28.662Z,3.20
2023-04-02T19:52:55.516Z,2.97
2023-04-02T19:55:22.093Z,3.10
2023-04-02T19:57:48.633Z,3.30
2023-04-02T20:00:15.776Z,3.23
2023-04-02T20:02:42.379Z,3.27
2023-04-02T20:05:09.423Z,4.47
2023-04-02T20:07:36.060Z,3.93
2023-04-02T20:10:02.977Z,3.90
2023-04-02T20:12:29.571Z,3.50
2023-04-02T20:14:56.233Z,3.53
2023-04-02T20:17:22.852Z,4.00
2023-04-02T20:19:49.435Z,3.87
2023-04-02T20:22:16.377Z,3.80
2023-04-02T20:24:42.995Z,4.17
2023-04-02T20:27:09.602Z,3.30
2023-04-02T20:29:36.313Z,3.03
2023-04-02T20:32:02.910Z,3.60
2023-04-02T20:34:29.576Z,3.80
2023-04-02T20:36:56.357Z,4.33
2023-04-02T20:39:23.967Z,3.97
2023-04-02T20:41:50.612Z,3.97
2023-04-02T20:44:17.279Z,3.77
2023-04-02T20:46:43.925Z,4.00
2023-04-02T20:49:10.850Z,3.30
2023-04-02T20:51:37.481Z,4.17
2023-04-02T20:54:04.258Z,3.70
2023-04-02T20:56:30.969Z,3.43
2023-04-02T20:58:57.685Z,3.30
2023-04-02T21:01:29.301Z,2.93
2023-04-02T21:03:58.184Z,3.80
2023-04-02T21:06:27.759Z,3.63
2023-04-02T21:08:54.396Z,3.20
2023-04-02T21:11:21.974Z,3.10
2023-04-02T21:13:49.991Z,3.37
2023-04-02T21:16:28.115Z,5.93
2023-04-02T21:18:55.963Z,4.70
2023-04-02T21:21:22.911Z,5.10
2023-04-02T21:23:55.731Z,3.73
2023-04-02T21:26:23.064Z,3.10
2023-04-02T21:28:49.761Z,3.70
2023-04-02T21:31:22.747Z,2.90
2023-04-02T21:33:52.092Z,2.90
2023-04-02T21:36:24.855Z,4.13
2023-04-02T21:38:53.989Z,3.23
2023-04-02T21:41:23.337Z,3.43
2023-04-02T21:43:50.640Z,3.13
2023-04-02T21:46:22.645Z,3.57
2023-04-02T21:48:50.618Z,4.10
2023-04-02T21:51:23.131Z,3.40
2023-04-02T21:53:50.179Z,3.70
2023-04-02T21:56:19.817Z,2.90
2023-04-02T21:58:47.547Z,3.03
2023-04-02T22:01:26.815Z,3.10
2023-04-02T22:03:58.420Z,3.63
2023-04-02T22:06:27.697Z,3.47
2023-04-02T22:08:59.653Z,3.90
2023-04-02T22:11:35.621Z,3.63
2023-04-02T22:14:05.812Z,3.23
2023-04-02T22:16:34.986Z,3.17
2023-04-02T22:19:04.464Z,3.67
2023-04-02T22:21:31.555Z,3.27
2023-04-02T22:24:03.606Z,3.40
2023-04-02T22:26:31.582Z,3.40
2023-04-02T22:28:58.646Z,3.17
2023-04-02T22:31:27.699Z,4.00
2023-04-02T22:33:56.069Z,3.07
2023-04-02T22:36:24.047Z,3.70
2023-04-02T22:38:50.844Z,2.97
2023-04-02T22:41:23.104Z,3.20
2023-04-02T22:43:50.199Z,3.20
2023-04-02T22:46:19.028Z,2.70
2023-04-02T22:48:49.071Z,3.07
2023-04-02T22:51:17.710Z,3.10
2023-04-02T22:53:45.464Z,2.90
2023-04-02T22:56:15.439Z,2.80
2023-04-02T22:58:42.392Z,3.17
2023-04-02T23:01:11.700Z,3.03
2023-04-02T23:03:38.995Z,2.70
2023-04-02T23:06:08.541Z,2.40
2023-04-02T23:08:36.586Z,3.20
2023-04-02T23:11:31.050Z,2.80
2023-04-02T23:13:58.621Z,3.17
2023-04-02T23:16:27.531Z,3.37
2023-04-02T23:18:55.343Z,3.23
2023-04-02T23:21:22.264Z,2.77
2023-04-02T23:23:50.363Z,2.90
2023-04-02T23:26:23.443Z,3.13
2023-04-02T23:28:51.230Z,3.27
2023-04-02T23:31:20.858Z,3.00
2023-04-02T23:33:47.819Z,3.27
2023-04-02T23:36:34.062Z,2.97
2023-04-02T23:39:09.279Z,3.57
2023-04-02T23:41:37.522Z,3.20
2023-04-02T23:44:04.893Z,3.67
2023-04-02T23:46:32.596Z,3.37
2023-04-02T23:49:00.426Z,3.40
2023-04-02T23:51:28.574Z,3.30
2023-04-02T23:53:56.151Z,3.37
2023-04-02T23:56:23.491Z,3.20
2023-04-02T23:58:50.775Z,3.50
